Time;durP1;ratioP1;P1;durP2;ratioP2;P2;SDS_P1;SDS_P2;PMS_P1;PMS_P2;Temp;Humidity;BMP_temperature;BMP_pressure;BME280_temperature;BME280_humidity;BME280_pressure;Samples;Min_cycle;Max_cycle;Signal;HPM_P1;HPM_P2
2022/04/05 00:00:29;;;;;;;17.90;8.20;;;;;;;2.95;50.13;97703.23;106188;1271;97877;-66
2022/04/05 00:03:06;;;;;;;16.60;7.50;;;;;;;2.96;50.30;97702.64;106145;1271;108592;-65
2022/04/05 00:05:34;;;;;;;17.10;7.30;;;;;;;2.96;49.97;97703.68;106185;1271;97948;-66
2022/04/05 00:08:05;;;;;;;16.50;7.50;;;;;;;2.99;50.09;97705.61;106169;1271;97987;-65
2022/04/05 00:10:36;;;;;;;17.80;7.80;;;;;;;3.01;50.42;97703.94;106094;1274;112062;-66
2022/04/05 00:13:07;;;;;;;19.30;7.90;;;;;;;3.02;50.59;97697.00;106114;1274;98052;-66
2022/04/05 00:15:35;;;;;;;17.30;8.00;;;;;;;3.03;49.90;97690.30;106174;1274;107335;-66
2022/04/05 00:18:05;;;;;;;15.80;7.80;;;;;;;3.07;50.29;97682.88;106104;1274;95168;-64
2022/04/05 00:20:34;;;;;;;18.40;8.20;;;;;;;3.06;50.27;97674.48;106135;1274;95302;-66
2022/04/05 00:23:04;;;;;;;17.10;7.00;;;;;;;3.06;50.40;97657.20;106116;1274;112098;-65
2022/04/05 00:25:33;;;;;;;19.00;7.90;;;;;;;3.06;50.79;97650.00;106097;1274;97964;-65
2022/04/05 00:28:02;;;;;;;19.80;8.80;;;;;;;3.06;50.89;97652.80;106149;1274;108430;-65
2022/04/05 00:30:33;;;;;;;16.60;7.40;;;;;;;3.07;50.60;97646.23;106208;1274;97989;-66
2022/04/05 00:33:04;;;;;;;18.00;8.30;;;;;;;3.06;50.63;97650.34;106176;1274;97838;-65
2022/04/05 00:35:34;;;;;;;18.70;8.40;;;;;;;3.06;50.83;97642.77;106175;1274;111658;-66
2022/04/05 00:38:04;;;;;;;16.10;7.30;;;;;;;3.07;51.01;97643.29;106167;1274;97707;-65
2022/04/05 00:40:32;;;;;;;17.80;7.80;;;;;;;3.08;51.30;97636.74;106219;1271;108407;-65
2022/04/05 00:43:03;;;;;;;17.60;8.10;;;;;;;3.07;50.69;97643.46;106213;1271;97847;-65
2022/04/05 00:45:36;;;;;;;21.30;8.10;;;;;;;3.07;50.75;97642.17;106216;1271;96609;-67
2022/04/05 00:48:06;;;;;;;18.70;8.50;;;;;;;3.08;51.25;97637.06;106123;1271;112039;-66
2022/04/05 00:50:38;;;;;;;17.10;7.50;;;;;;;3.08;51.17;97633.55;106119;1271;97711;-66
2022/04/05 00:53:09;;;;;;;18.70;7.40;;;;;;;3.08;50.97;97629.36;106119;1271;108461;-65
2022/04/05 00:55:41;;;;;;;20.40;9.50;;;;;;;3.09;51.69;97629.84;106162;1271;98008;-65
2022/04/05 00:58:14;;;;;;;19.50;8.30;;;;;;;3.09;51.35;97626.83;106187;1271;99270;-64
2022/04/05 01:00:42;;;;;;;21.20;8.30;;;;;;;3.10;51.24;97624.00;106120;1274;112345;-63
2022/04/05 01:03:14;;;;;;;20.30;8.40;;;;;;;3.10;51.28;97627.13;106170;1271;97889;-64
2022/04/05 01:05:48;;;;;;;17.40;8.10;;;;;;;3.11;51.41;97629.19;106233;1271;107493;-65
2022/04/05 01:08:19;;;;;;;18.80;9.00;;;;;;;3.13;51.25;97627.13;106179;1271;95251;-66
2022/04/05 01:10:51;;;;;;;20.70;8.50;;;;;;;3.14;51.35;97621.28;106176;1271;97957;-65
2022/04/05 01:13:20;;;;;;;19.10;9.10;;;;;;;3.16;51.52;97612.57;106213;1271;112120;-64
2022/04/05 01:15:50;;;;;;;20.10;8.40;;;;;;;3.17;51.55;97603.95;106208;1271;95242;-62
2022/04/05 01:18:21;;;;;;;19.60;8.00;;;;;;;3.18;51.68;97605.11;106150;1271;109193;-65
2022/04/05 01:20:51;;;;;;;18.70;8.50;;;;;;;3.19;51.75;97602.59;106142;1271;95289;-64
2022/04/05 01:23:24;;;;;;;18.50;8.50;;;;;;;3.18;51.66;97595.10;106200;1273;97835;-65
2022/04/05 01:25:52;;;;;;;23.70;9.10;;;;;;;3.20;51.90;97603.70;106132;1274;110341;-65
2022/04/05 01:28:22;;;;;;;19.60;8.90;;;;;;;3.21;52.30;97590.19;106165;1271;97913;-64
2022/04/05 01:30:53;;;;;;;20.50;9.10;;;;;;;3.21;52.15;97586.86;106094;1274;108298;-64
2022/04/05 01:33:24;;;;;;;18.90;8.60;;;;;;;3.23;52.54;97581.27;106218;1274;97975;-66
2022/04/05 01:35:52;;;;;;;19.50;8.90;;;;;;;3.25;52.52;97585.73;106215;1274;97943;-65
2022/04/05 01:38:20;;;;;;;16.40;7.60;;;;;;;3.25;52.28;97585.34;106180;1271;112035;-66
2022/04/05 01:40:51;;;;;;;19.60;9.30;;;;;;;3.26;52.61;97582.83;106179;1272;97861;-64
2022/04/05 01:43:21;;;;;;;19.30;8.60;;;;;;;3.26;52.63;97583.86;106215;1274;108397;-64
2022/04/05 01:45:52;;;;;;;20.00;9.30;;;;;;;3.27;52.70;97579.98;106127;1274;95251;-66
2022/04/05 01:48:22;;;;;;;21.20;9.20;;;;;;;3.28;52.85;97585.15;106217;1274;97939;-66
2022/04/05 01:50:52;;;;;;;21.30;10.10;;;;;;;3.28;52.84;97579.55;106125;1274;111950;-66
2022/04/05 01:53:20;;;;;;;18.90;9.00;;;;;;;3.28;52.83;97577.05;106126;1273;97897;-65
2022/04/05 01:55:51;;;;;;;21.30;9.50;;;;;;;3.30;52.93;97569.95;106115;1273;108299;-64
2022/04/05 01:58:20;;;;;;;20.00;9.00;;;;;;;3.31;52.86;97575.67;106176;1273;97832;-64
2022/04/05 02:00:51;;;;;;;20.40;9.60;;;;;;;3.32;52.67;97570.34;106137;1274;96866;-64
2022/04/05 02:03:22;;;;;;;21.10;9.90;;;;;;;3.35;52.91;97574.02;106119;1274;112078;-65
2022/04/05 02:05:53;;;;;;;20.10;9.80;;;;;;;3.36;52.90;97567.84;106156;1274;95282;-65
2022/04/05 02:08:21;;;;;;;20.00;9.00;;;;;;;3.37;52.73;97573.70;106218;1274;108179;-65
2022/04/05 02:10:49;;;;;;;19.80;9.50;;;;;;;3.38;52.93;97570.63;106203;1274;97875;-65
2022/04/05 02:13:17;;;;;;;20.50;9.70;;;;;;;3.40;52.79;97563.50;106162;1273;95197;-64
2022/04/05 02:15:48;;;;;;;20.10;9.00;;;;;;;3.40;52.78;97558.94;106088;1274;111890;-65
2022/04/05 02:18:16;;;;;;;21.20;10.00;;;;;;;3.41;52.95;97545.58;106101;1274;97988;-65
2022/04/05 02:20:49;;;;;;;20.50;9.00;;;;;;;3.40;53.14;97541.03;106102;1274;108401;-65
2022/04/05 02:23:19;;;;;;;21.80;10.30;;;;;;;3.40;53.04;97540.53;106067;1274;97967;-66
2022/04/05 02:25:50;;;;;;;23.80;9.90;;;;;;;3.40;53.22;97533.91;106091;1274;96253;-69
2022/04/05 02:28:18;;;;;;;21.40;10.50;;;;;;;3.40;53.09;97532.49;106088;1274;111923;-66
2022/04/05 02:30:49;;;;;;;22.10;10.80;;;;;;;3.39;53.48;97531.33;106134;1274;98932;-66
2022/04/05 02:33:20;;;;;;;21.50;10.00;;;;;;;3.39;53.33;97538.85;106105;1274;106072;-66
2022/04/05 02:35:48;;;;;;;21.40;9.80;;;;;;;3.40;53.21;97539.72;106206;1274;95175;-69
2022/04/05 02:38:16;;;;;;;20.00;10.10;;;;;;;3.39;53.28;97537.24;106152;1274;96975;-66
2022/04/05 02:40:46;;;;;;;21.60;10.50;;;;;;;3.40;53.06;97535.11;106228;1271;110880;-65
2022/04/05 02:43:17;;;;;;;21.50;10.50;;;;;;;3.41;53.30;97538.70;106228;1271;95912;-66
2022/04/05 02:45:45;;;;;;;22.60;11.10;;;;;;;3.42;53.39;97534.77;106178;1274;107708;-64
2022/04/05 02:48:18;;;;;;;23.60;10.40;;;;;;;3.43;53.42;97534.05;106197;1271;97945;-65
2022/04/05 02:50:46;;;;;;;20.20;10.10;;;;;;;3.43;53.52;97538.92;106134;1273;97853;-64
2022/04/05 02:53:19;;;;;;;22.00;10.10;;;;;;;3.44;53.61;97542.55;106060;1274;112082;-66
2022/04/05 02:55:47;;;;;;;20.50;10.70;;;;;;;3.43;53.62;97538.92;106175;1274;97929;-67
2022/04/05 02:58:18;;;;;;;23.00;11.30;;;;;;;3.46;53.78;97537.56;106061;1273;108409;-67
2022/04/05 03:00:49;;;;;;;22.70;10.60;;;;;;;3.46;53.55;97528.25;106107;1274;97875;-65
2022/04/05 03:03:17;;;;;;;22.70;10.10;;;;;;;3.47;53.50;97528.50;106122;1274;95271;-64
2022/04/05 03:05:47;;;;;;;21.60;10.60;;;;;;;3.49;53.56;97527.34;106052;1274;111710;-65
2022/04/05 03:08:19;;;;;;;19.30;9.40;;;;;;;3.48;53.38;97526.69;106198;1271;97851;-66
2022/04/05 03:10:46;;;;;;;18.80;9.10;;;;;;;3.49;53.90;97522.05;106146;1271;108379;-65
2022/04/05 03:13:17;;;;;;;21.10;10.10;;;;;;;3.48;53.65;97524.58;106119;1271;97934;-66
2022/04/05 03:15:49;;;;;;;23.40;11.20;;;;;;;3.47;53.82;97527.67;106188;1271;97815;-65
2022/04/05 03:18:17;;;;;;;21.20;10.60;;;;;;;3.46;53.81;97519.63;106157;1271;112368;-65
2022/04/05 03:20:44;;;;;;;22.50;10.40;;;;;;;3.45;54.02;97519.70;106105;1274;96306;-65
2022/04/05 03:23:13;;;;;;;22.20;10.00;;;;;;;3.44;54.24;97515.41;106148;1274;108315;-65
2022/04/05 03:25:41;;;;;;;23.00;10.70;;;;;;;3.42;54.21;97511.11;106112;1274;97881;-66
2022/04/05 03:28:09;;;;;;;21.30;10.50;;;;;;;3.41;54.01;97515.95;106160;1271;95265;-66
2022/04/05 03:30:37;;;;;;;22.00;10.70;;;;;;;3.41;54.29;97515.42;106107;1271;111972;-66
2022/04/05 03:33:07;;;;;;;22.00;10.90;;;;;;;3.41;54.14;97516.63;106069;1274;96982;-63
2022/04/05 03:35:36;;;;;;;23.10;12.00;;;;;;;3.42;54.02;97520.79;106088;1271;108417;-66
2022/04/05 03:38:05;;;;;;;21.70;11.20;;;;;;;3.42;54.49;97519.60;104066;1274;2739919;-67
2022/04/05 03:40:33;;;;;;;20.20;10.60;;;;;;;3.40;54.43;97516.75;106180;1271;96303;-66
2022/04/05 03:43:01;;;;;;;22.00;11.10;;;;;;;3.38;54.32;97524.19;106120;1271;111701;-65
2022/04/05 03:45:30;;;;;;;22.10;11.00;;;;;;;3.37;54.17;97521.48;106156;1271;97876;-65
2022/04/05 03:48:01;;;;;;;20.90;11.70;;;;;;;3.34;54.62;97523.58;106150;1271;107947;-66
2022/04/05 03:50:31;;;;;;;27.50;11.10;;;;;;;3.30;54.58;97524.72;106134;1274;97866;-65
2022/04/05 03:53:02;;;;;;;23.20;11.70;;;;;;;3.25;54.61;97526.14;106199;1274;97863;-65
2022/04/05 03:55:30;;;;;;;23.10;11.20;;;;;;;3.20;54.68;97530.83;106131;1274;112361;-65
2022/04/05 03:58:01;;;;;;;21.50;11.00;;;;;;;3.17;54.52;97529.11;106140;1274;97891;-66
2022/04/05 04:00:30;;;;;;;23.70;12.20;;;;;;;3.13;55.05;97533.41;106167;1274;108299;-65
2022/04/05 04:02:58;;;;;;;22.90;11.80;;;;;;;3.07;54.88;97534.54;106159;1274;95242;-69
2022/04/05 04:05:29;;;;;;;20.10;11.20;;;;;;;3.01;54.89;97536.30;106082;1273;98508;-65
2022/04/05 04:07:57;;;;;;;23.50;12.10;;;;;;;2.99;55.23;97538.00;106142;1271;111836;-66
2022/04/05 04:10:27;;;;;;;25.00;13.10;;;;;;;2.94;54.92;97539.58;106111;1271;97871;-65
2022/04/05 04:12:58;;;;;;;23.00;12.70;;;;;;;2.90;55.21;97541.55;105995;1274;108457;-64
2022/04/05 04:15:28;;;;;;;22.80;11.30;;;;;;;2.86;55.03;97543.59;106110;1274;97869;-66
2022/04/05 04:17:55;;;;;;;27.20;11.50;;;;;;;2.82;55.37;97544.15;106128;1274;98995;-65
2022/04/05 04:20:24;;;;;;;24.00;12.50;;;;;;;2.80;55.66;97543.24;106199;1274;111826;-65
2022/04/05 04:22:54;;;;;;;23.10;12.60;;;;;;;2.77;55.64;97542.26;106195;1274;97953;-65
2022/04/05 04:25:24;;;;;;;24.60;12.40;;;;;;;2.74;55.49;97542.65;106162;1271;109001;-64
2022/04/05 04:27:54;;;;;;;22.00;12.20;;;;;;;2.71;55.52;97547.38;106175;1271;98593;-65
2022/04/05 04:30:26;;;;;;;23.10;12.30;;;;;;;2.69;55.75;97540.80;106219;1271;97899;-64
2022/04/05 04:32:54;;;;;;;24.30;12.40;;;;;;;2.67;55.83;97546.34;106197;1271;111784;-67
2022/04/05 04:35:28;;;;;;;25.00;12.20;;;;;;;2.67;56.66;97549.33;106130;1271;97724;-67
2022/04/05 04:37:59;;;;;;;23.40;11.60;;;;;;;2.64;56.28;97548.84;106200;1271;107789;-65
2022/04/05 04:40:27;;;;;;;24.10;12.90;;;;;;;2.63;55.95;97552.44;106209;1271;97885;-66
2022/04/05 04:43:00;;;;;;;24.70;12.50;;;;;;;2.62;56.19;97545.00;106087;1271;96576;-66
2022/04/05 04:45:31;;;;;;;24.50;12.40;;;;;;;2.60;56.23;97546.70;106110;1271;111418;-68
2022/04/05 04:48:02;;;;;;;23.00;12.20;;;;;;;2.60;56.27;97548.80;106098;1274;97999;-66
2022/04/05 04:50:30;;;;;;;24.20;12.80;;;;;;;2.58;56.61;97551.35;106148;1271;108011;-64
2022/04/05 04:52:59;;;;;;;24.50;11.20;;;;;;;2.58;56.47;97555.41;106141;1274;97998;-65
2022/04/05 04:55:28;;;;;;;23.90;12.10;;;;;;;2.57;56.73;97561.71;106180;1274;97976;-64
2022/04/05 04:58:17;;;;;;;24.10;12.30;;;;;;;2.56;56.52;97556.58;106133;1271;114121;-67
2022/04/05 05:00:45;;;;;;;23.60;13.10;;;;;;;2.54;56.44;97559.66;106155;1274;97895;-66
2022/04/05 05:03:18;;;;;;;24.60;13.20;;;;;;;2.55;57.16;97566.27;106123;1274;107990;-66
2022/04/05 05:05:51;;;;;;;26.00;13.00;;;;;;;2.53;57.01;97565.48;106104;1271;97957;-67
2022/04/05 05:08:22;;;;;;;25.80;12.50;;;;;;;2.51;56.94;97570.48;106125;1274;97874;-66
2022/04/05 05:10:50;;;;;;;24.80;12.20;;;;;;;2.51;57.71;97570.18;106119;1273;111999;-67
2022/04/05 05:13:22;;;;;;;24.80;12.60;;;;;;;2.50;57.26;97563.23;106188;1271;97870;-67
2022/04/05 05:15:51;;;;;;;24.10;13.10;;;;;;;2.48;57.41;97556.52;106052;1271;107763;-69
2022/04/05 05:18:21;;;;;;;25.80;14.20;;;;;;;2.47;57.96;97555.21;106105;1271;95257;-69
2022/04/05 05:20:51;;;;;;;27.60;13.70;;;;;;;2.45;57.86;97551.80;106143;1271;97988;-68
2022/04/05 05:23:21;;;;;;;28.10;14.60;;;;;;;2.44;57.98;97551.69;106093;1271;112809;-68
2022/04/05 05:25:52;;;;;;;23.50;12.80;;;;;;;2.44;58.17;97549.42;106059;1274;95309;-69
2022/04/05 05:28:23;;;;;;;24.80;12.60;;;;;;;2.44;60.06;97552.44;106183;1271;108531;-69
2022/04/05 05:30:51;;;;;;;25.10;13.80;;;;;;;2.40;58.96;97552.52;106094;1271;97998;-69
2022/04/05 05:33:22;;;;;;;28.40;15.50;;;;;;;2.39;60.96;97554.45;106164;1274;95191;-68
2022/04/05 05:35:54;;;;;;;29.50;14.70;;;;;;;2.35;60.47;97555.41;106044;1274;112030;-68
2022/04/05 05:38:22;;;;;;;25.70;14.30;;;;;;;2.30;60.62;97557.70;106095;1274;97945;-67
2022/04/05 05:40:52;;;;;;;25.80;13.90;;;;;;;2.25;60.60;97558.32;106094;1274;108476;-69
2022/04/05 05:43:23;;;;;;;26.70;14.80;;;;;;;2.26;61.10;97563.17;106058;1274;96427;-69
2022/04/05 05:45:52;;;;;;;23.90;11.60;;;;;;;2.24;61.17;97566.06;106151;1274;97898;-69
2022/04/05 05:48:20;;;;;;;28.20;15.00;;;;;;;2.23;62.29;97567.55;106093;1274;111977;-68
2022/04/05 05:50:52;;;;;;;28.20;14.40;;;;;;;2.20;60.65;97567.22;106137;1274;97901;-68
2022/04/05 05:53:24;;;;;;;25.20;12.60;;;;;;;2.20;60.57;97567.20;106129;1273;108430;-68
2022/04/05 05:55:52;;;;;;;26.10;14.30;;;;;;;2.24;60.71;97572.74;106225;1273;97819;-67
2022/04/05 05:58:20;;;;;;;26.70;14.20;;;;;;;2.24;60.66;97568.36;106089;1274;97966;-68
2022/04/05 06:00:51;;;;;;;25.50;13.60;;;;;;;2.25;61.01;97571.45;106098;1272;111944;-69
2022/04/05 06:03:19;;;;;;;28.00;14.00;;;;;;;2.27;62.32;97567.84;106092;1271;97867;-68
2022/04/05 06:05:50;;;;;;;27.70;14.60;;;;;;;2.19;62.54;97566.37;106128;1271;108125;-69
2022/04/05 06:08:17;;;;;;;25.20;13.60;;;;;;;2.17;61.49;97569.48;106086;1271;97840;-68
2022/04/05 06:10:45;;;;;;;26.90;13.50;;;;;;;2.20;62.24;97568.77;106080;1271;96500;-69
2022/04/05 06:13:16;;;;;;;28.10;15.50;;;;;;;2.19;63.92;97579.13;106089;1271;111001;-68
2022/04/05 06:15:47;;;;;;;31.90;15.70;;;;;;;2.16;63.37;97575.49;106140;1271;95191;-68
2022/04/05 06:18:15;;;;;;;28.00;15.30;;;;;;;2.15;64.17;97576.95;106073;1274;108226;-67
2022/04/05 06:20:43;;;;;;;27.60;15.70;;;;;;;2.16;64.36;97579.70;106092;1274;97957;-68
2022/04/05 06:23:14;;;;;;;28.40;15.20;;;;;;;2.14;64.37;97580.55;106142;1271;97907;-69
2022/04/05 06:25:43;;;;;;;26.00;14.50;;;;;;;2.16;64.90;97576.91;106116;1274;111844;-69
2022/04/05 06:28:15;;;;;;;28.10;14.40;;;;;;;2.15;63.95;97578.02;106074;1274;97851;-68
2022/04/05 06:30:43;;;;;;;24.80;13.90;;;;;;;2.17;64.09;97584.33;106076;1274;108766;-67
2022/04/05 06:33:17;;;;;;;27.50;15.40;;;;;;;2.21;63.85;97579.73;106041;1274;97873;-68
2022/04/05 06:35:51;;;;;;;28.80;14.80;;;;;;;2.24;63.71;97584.23;106153;1271;97879;-68
2022/04/05 06:38:22;;;;;;;27.30;15.50;;;;;;;2.29;64.02;97588.35;106102;1271;111399;-69
2022/04/05 06:40:54;;;;;;;27.50;15.90;;;;;;;2.32;63.75;97592.73;106079;1271;96601;-69
2022/04/05 06:43:24;;;;;;;27.80;13.60;;;;;;;2.35;63.57;97588.82;106154;1271;107654;-69
2022/04/05 06:45:55;;;;;;;25.00;13.80;;;;;;;2.40;64.00;97590.43;106171;1271;98261;-69
2022/04/05 06:48:23;;;;;;;29.70;14.30;;;;;;;2.39;63.70;97593.13;106137;1271;95318;-71
2022/04/05 06:50:54;;;;;;;27.60;14.70;;;;;;;2.42;64.07;97592.06;106099;1271;111088;-69
2022/04/05 06:53:22;;;;;;;25.00;14.40;;;;;;;2.43;64.01;97596.36;106149;1271;97952;-69
2022/04/05 06:55:51;;;;;;;30.20;14.30;;;;;;;2.46;63.94;97594.57;106102;1271;107751;-68
2022/04/05 06:58:19;;;;;;;28.70;15.60;;;;;;;2.50;64.76;97600.48;106073;1271;98011;-66
2022/04/05 07:00:47;;;;;;;26.30;14.50;;;;;;;2.49;64.73;97594.95;106089;1271;95364;-70
2022/04/05 07:03:18;;;;;;;29.30;15.70;;;;;;;2.46;65.73;97598.46;106099;1271;111912;-68
2022/04/05 07:05:49;;;;;;;28.10;15.60;;;;;;;2.46;64.68;97594.10;106146;1271;96261;-69
2022/04/05 07:08:17;;;;;;;27.90;15.50;;;;;;;2.47;64.54;97599.27;106127;1271;109213;-69
2022/04/05 07:10:45;;;;;;;26.70;15.00;;;;;;;2.49;65.08;97599.50;106163;1271;95284;-69
2022/04/05 07:13:16;;;;;;;26.90;15.10;;;;;;;2.47;65.07;97602.59;106131;1271;97873;-70
2022/04/05 07:15:47;;;;;;;27.50;14.60;;;;;;;2.48;64.26;97601.84;106181;1271;113210;-69
2022/04/05 07:18:16;;;;;;;28.20;14.80;;;;;;;2.51;64.68;97600.96;106171;1272;97913;-69
2022/04/05 07:20:43;;;;;;;29.10;15.10;;;;;;;2.54;64.38;97600.77;106200;1274;107388;-70
2022/04/05 07:23:15;;;;;;;29.40;16.60;;;;;;;2.59;65.36;97600.48;106190;1271;97985;-71
2022/04/05 07:25:46;;;;;;;31.50;16.70;;;;;;;2.57;65.09;97598.33;106144;1271;96553;-69
2022/04/05 07:28:14;;;;;;;29.90;16.00;;;;;;;2.57;65.58;97604.24;106083;1274;112033;-71
2022/04/05 07:30:45;;;;;;;30.40;16.90;;;;;;;2.55;66.23;97602.81;106131;1274;97954;-68
2022/04/05 07:33:14;;;;;;;28.60;16.60;;;;;;;2.54;65.66;97607.59;106053;1274;107457;-69
2022/04/05 07:35:43;;;;;;;27.80;15.00;;;;;;;2.56;66.09;97612.88;106113;1274;95207;-66
2022/04/05 07:38:13;;;;;;;28.10;15.40;;;;;;;2.56;66.13;97608.52;106207;1274;97742;-69
2022/04/05 07:40:52;;;;;;;29.80;14.80;;;;;;;2.55;65.93;97611.05;106199;1274;111791;-68
2022/04/05 07:43:27;;;;;;;29.10;14.60;;;;;;;2.57;65.61;97611.98;106196;1274;96406;-68
2022/04/05 07:45:56;;;;;;;25.00;13.60;;;;;;;2.60;66.15;97613.01;106101;1274;106541;-68
2022/04/05 07:48:29;;;;;;;28.70;14.50;;;;;;;2.62;66.65;97614.10;106143;1274;97939;-68
2022/04/05 07:50:59;;;;;;;27.30;14.50;;;;;;;2.61;66.90;97618.34;106220;1274;97883;-69
2022/04/05 07:53:29;;;;;;;26.60;14.80;;;;;;;2.61;67.51;97617.83;106090;1274;111941;-67
2022/04/05 07:55:57;;;;;;;26.50;14.60;;;;;;;2.61;66.58;97617.16;106169;1274;95206;-69
2022/04/05 07:58:28;;;;;;;28.00;14.00;;;;;;;2.62;67.18;97613.04;106047;1274;107729;-69
2022/04/05 08:00:56;;;;;;;26.20;13.30;;;;;;;2.62;67.17;97619.55;106088;1274;97981;-71
2022/04/05 08:03:28;;;;;;;25.90;13.50;;;;;;;2.61;67.03;97611.68;106133;1272;97980;-70
2022/04/05 08:05:57;;;;;;;26.20;14.50;;;;;;;2.63;66.99;97614.73;106192;1274;111331;-69
2022/04/05 08:08:30;;;;;;;30.50;14.40;;;;;;;2.66;66.77;97616.42;106178;1274;95186;-71
2022/04/05 08:11:18;;;;;;;25.20;13.60;;;;;;;2.72;67.12;97610.85;106182;1274;108397;-71
2022/04/05 08:13:46;;;;;;;25.40;13.40;;;;;;;2.74;67.15;97611.58;106153;1274;98015;-69
2022/04/05 08:16:14;;;;;;;24.60;13.90;;;;;;;2.77;66.70;97608.59;106141;1274;98576;-71
2022/04/05 08:18:44;;;;;;;26.90;13.70;;;;;;;2.80;66.77;97609.61;106192;1274;111421;-71
2022/04/05 08:21:12;;;;;;;24.50;13.50;;;;;;;2.85;67.84;97610.02;106135;1274;98012;-71
2022/04/05 08:23:40;;;;;;;25.90;13.20;;;;;;;2.88;66.95;97610.52;106070;1274;106788;-70
2022/04/05 08:26:08;;;;;;;25.40;13.00;;;;;;;2.91;67.59;97613.47;106089;1274;95285;-70
2022/04/05 08:28:36;;;;;;;24.80;12.70;;;;;;;2.92;66.93;97610.61;106104;1274;95279;-70
2022/04/05 08:31:04;;;;;;;26.70;13.80;;;;;;;2.94;68.31;97615.23;106182;1274;111997;-71
2022/04/05 08:33:35;;;;;;;26.40;13.80;;;;;;;2.93;67.77;97612.47;106187;1274;97494;-70
2022/04/05 08:36:03;;;;;;;27.10;13.80;;;;;;;2.94;68.30;97617.30;106201;1274;107740;-71
2022/04/05 08:38:35;;;;;;;26.40;14.50;;;;;;;2.93;67.91;97619.66;106018;1274;95380;-70
2022/04/05 08:41:07;;;;;;;24.40;13.10;;;;;;;2.94;67.70;97615.02;106199;1273;95264;-70
2022/04/05 08:43:44;;;;;;;24.20;13.00;;;;;;;2.98;68.00;97613.93;106208;1274;111658;-70
2022/04/05 08:46:15;;;;;;;24.10;12.90;;;;;;;3.00;68.15;97619.55;106163;1273;98091;-69
2022/04/05 08:48:48;;;;;;;22.70;12.50;;;;;;;3.02;68.11;97616.11;106214;1271;107825;-67
2022/04/05 08:51:15;;;;;;;24.70;13.10;;;;;;;3.03;68.11;97620.58;106257;1271;95487;-69
2022/04/05 08:53:44;;;;;;;23.10;12.30;;;;;;;3.06;68.44;97623.73;106264;1271;97916;-70
2022/04/05 08:56:13;;;;;;;26.00;13.70;;;;;;;3.09;68.63;97624.73;106245;1273;111345;-70
2022/04/05 08:58:44;;;;;;;22.80;11.30;;;;;;;3.10;68.17;97627.32;106228;1273;98400;-70
2022/04/05 09:01:12;;;;;;;24.10;13.30;;;;;;;3.16;68.08;97617.68;106296;1274;107754;-71
2022/04/05 09:03:40;;;;;;;24.20;13.20;;;;;;;3.19;68.57;97620.29;106124;1274;95401;-69
2022/04/05 09:06:32;;;;;;;25.30;13.70;;;;;;;3.23;68.51;97620.15;106198;1274;97917;-69
2022/04/05 09:09:16;;;;;;;26.70;13.10;;;;;;;3.27;68.50;97624.10;106107;1274;112367;-70
2022/04/05 09:11:50;;;;;;;24.70;12.90;;;;;;;3.33;68.30;97622.84;106078;1274;97775;-68
2022/04/05 09:14:30;;;;;;;24.00;12.40;;;;;;;3.40;68.62;97626.24;106114;1274;108131;-70
2022/04/05 09:17:14;;;;;;;23.50;12.80;;;;;;;3.44;68.53;97629.85;106210;1274;97982;-69
2022/04/05 09:19:52;;;;;;;22.30;11.00;;;;;;;3.47;68.36;97624.20;106185;1274;95304;-70
2022/04/05 09:22:35;;;;;;;24.10;12.50;;;;;;;3.53;68.73;97627.30;106112;1273;112055;-71
2022/04/05 09:25:08;;;;;;;23.70;12.80;;;;;;;3.58;68.52;97626.25;106132;1271;97857;-70
2022/04/05 09:27:56;;;;;;;23.60;13.10;;;;;;;3.64;68.70;97628.87;106124;1272;106972;-69
2022/04/05 09:30:34;;;;;;;22.30;11.90;;;;;;;3.69;68.62;97629.21;106145;1270;95330;-70
2022/04/05 09:33:04;;;;;;;23.30;12.70;;;;;;;3.76;68.70;97629.30;106209;1271;97806;-71
2022/04/05 09:35:44;;;;;;;26.00;12.20;;;;;;;3.83;68.45;97627.23;106184;1271;111388;-70
2022/04/05 09:38:20;;;;;;;24.80;12.70;;;;;;;3.91;68.41;97629.14;106202;1273;97956;-71
2022/04/05 09:40:52;;;;;;;22.90;11.90;;;;;;;3.96;68.17;97628.29;106227;1271;107799;-71
2022/04/05 09:43:32;;;;;;;22.90;11.80;;;;;;;4.02;68.31;97631.91;106121;1271;97952;-70
2022/04/05 09:46:05;;;;;;;24.80;12.30;;;;;;;4.08;68.79;97637.98;106152;1271;97928;-70
2022/04/05 09:48:39;;;;;;;24.70;11.70;;;;;;;4.08;68.47;97638.17;106129;1271;112894;-69
2022/04/05 09:51:14;;;;;;;;;;;;;;;4.10;68.27;97638.55;106104;1274;98466;-70
2022/04/05 09:53:54;;;;;;;24.10;11.60;;;;;;;4.12;68.54;97641.55;106122;1274;107908;-70
2022/04/05 09:56:33;;;;;;;22.30;11.70;;;;;;;4.15;68.80;97639.41;106126;1271;97970;-68
2022/04/05 09:59:14;;;;;;;23.80;11.60;;;;;;;4.16;68.83;97635.30;106212;1274;97943;-71
2022/04/05 10:01:42;;;;;;;24.40;12.10;;;;;;;4.19;68.88;97634.42;106105;1274;111980;-71
2022/04/05 10:04:19;;;;;;;21.70;11.00;;;;;;;4.22;68.74;97637.58;106182;1271;96197;-71
2022/04/05 10:06:50;;;;;;;22.00;11.00;;;;;;;4.26;68.72;97633.05;106159;1271;108345;-69
2022/04/05 10:09:22;;;;;;;21.30;11.40;;;;;;;4.31;68.59;97639.01;106156;1271;98080;-70
2022/04/05 10:11:50;;;;;;;23.60;10.40;;;;;;;4.38;68.96;97637.18;106235;1271;95284;-73
2022/04/05 10:14:23;;;;;;;24.60;11.20;;;;;;;4.42;68.63;97639.02;106183;1271;112037;-73
2022/04/05 10:16:57;;;;;;;23.10;12.10;;;;;;;4.45;68.95;97640.69;106144;1274;97861;-73
2022/04/05 10:19:30;;;;;;;22.30;11.00;;;;;;;4.48;68.72;97639.66;106113;1274;107707;-69
2022/04/05 10:22:01;;;;;;;21.50;10.40;;;;;;;4.52;68.87;97643.89;106151;1272;97985;-69
2022/04/05 10:24:32;;;;;;;21.80;10.60;;;;;;;4.54;68.87;97646.56;106114;1274;97967;-69
2022/04/05 10:27:05;;;;;;;21.80;10.70;;;;;;;4.56;69.06;97648.20;106086;1274;112106;-69
2022/04/05 10:29:36;;;;;;;23.70;12.00;;;;;;;4.59;68.95;97646.23;106145;1274;98043;-68
2022/04/05 10:32:22;;;;;;;22.40;11.40;;;;;;;4.63;69.00;97639.08;106147;1274;108389;-69
2022/04/05 10:35:07;;;;;;;22.70;10.30;;;;;;;4.69;69.01;97638.78;106208;1274;97874;-68
2022/04/05 10:37:39;;;;;;;20.20;10.40;;;;;;;4.73;68.98;97647.14;106173;1274;97977;-69
2022/04/05 10:40:10;;;;;;;20.00;9.80;;;;;;;4.78;69.08;97645.02;106098;1274;111447;-71
2022/04/05 10:42:43;;;;;;;20.80;10.30;;;;;;;4.83;68.97;97639.09;106163;1273;97857;-68
2022/04/05 10:45:11;;;;;;;19.50;9.50;;;;;;;4.88;68.87;97643.83;106203;1273;107411;-69
2022/04/05 10:48:16;;;;;;;20.80;10.20;;;;;;;4.92;69.04;97644.20;106130;1274;97995;-67
2022/04/05 10:50:59;;;;;;;23.10;10.30;;;;;;;4.93;69.13;97647.46;106141;1271;97906;-70
2022/04/05 10:53:35;;;;;;;23.90;10.50;;;;;;;4.92;69.00;97650.15;106153;1271;111489;-69
2022/04/05 10:56:02;;;;;;;21.40;10.20;;;;;;;4.97;69.21;97657.58;106171;1271;97944;-67
2022/04/05 10:58:47;;;;;;;20.90;10.10;;;;;;;4.96;69.36;97658.17;106135;1271;108346;-69
2022/04/05 11:01:24;;;;;;;23.30;9.80;;;;;;;4.91;69.27;97658.84;106104;1274;97861;-69
2022/04/05 11:07:02;;;;;;;24.70;11.50;;;;;;;4.91;69.36;97660.79;106104;1271;112078;-68
2022/04/05 11:09:34;;;;;;;24.90;11.00;;;;;;;4.92;69.32;97664.73;106105;1271;97880;-70
2022/04/05 11:12:09;;;;;;;24.40;11.20;;;;;;;4.94;69.35;97663.42;106254;1271;107946;-70
2022/04/05 11:14:39;;;;;;;20.70;10.10;;;;;;;4.97;69.36;97665.84;106187;1274;97954;-70
2022/04/05 11:17:13;;;;;;;20.30;9.30;;;;;;;4.99;69.55;97665.35;106100;1271;96968;-70
2022/04/05 11:19:47;;;;;;;21.10;10.10;;;;;;;4.99;69.48;97666.92;106160;1271;111396;-73
2022/04/05 11:22:37;;;;;;;26.30;11.10;;;;;;;5.00;69.46;97666.80;106148;1271;97878;-71
2022/04/05 11:25:10;;;;;;;21.90;11.00;;;;;;;5.04;69.49;97666.70;106144;1271;107750;-70
2022/04/05 11:27:45;;;;;;;19.60;9.40;;;;;;;5.09;69.46;97667.48;106136;1273;97963;-70
2022/04/05 11:30:40;;;;;;;21.90;10.30;;;;;;;5.12;69.47;97671.06;106092;1271;99006;-69
2022/04/05 11:35:48;;;;;;;20.50;9.50;;;;;;;5.15;69.52;97674.55;106136;1271;97729;-70
2022/04/05 11:38:16;;;;;;;19.00;8.40;;;;;;;5.13;69.47;97678.01;106186;1271;107890;-70
2022/04/05 11:40:53;;;;;;;18.90;8.20;;;;;;;5.12;69.74;97676.91;106103;1271;96342;-69